Indianola, Oklahoma
Current Conditions -  °F | °C
As of 7:53 PM on Thursday 20 Nov 2014 (Local Time) from KMLC Reporting Station
Few Clouds Few Clouds  
Wind Chill: 53°   Ceiling: Unl
Heat Index: 53°   Visibility: 10mi
Dew Point: 46°   Wind: 7mph
Humidity: 77%   Direction: 100°E
Pressure: 30.08"   Gusts: NA
Location:  35.16°N, 95.77°W
Report Text: KMLC 210153Z AUTO 10006KT 10SM FEW070 12/08 A3008 RMK AO2 SLP187 T01170078
Loading
Personal Weather Stations






























Interactive Weather Map New forecast layout! Learn more

10-Day Weather Forecast

Advertisements
Track Severe Weather on mobile